Maryport, United Kingdom
Current Conditions -  °F | °C
As of 11:50 AM on Wednesday 28 Jan 2015 (Local Time) from EGNC Reporting Station
Rain Showers Rain Showers  
Wind Chill: 28°   Ceiling: 2300
Heat Index: 39°   Visibility: 6mi
Dew Point: 32°   Wind: 25mph
Humidity: 75%   Direction: 270°W
Pressure: 29.29"   Gusts: 43mph
Location:  54.71°N, 3.5°W
Report Text: EGNC 281150Z 27022G37KT 9999 6000NW VCSH BKN023 04/00 Q0992
Loading
Personal Weather Stations






























Interactive Weather Map New forecast layout! Learn more

10-Day Weather Forecast

Advertisements
Track Severe Weather on mobile